sensor_id;sensor_type;location;lat;lon;timestamp;P1;durP1;ratioP1;P2;durP2;ratioP2
49942;SDS011;36011;53.362;58.948;2023-04-03T00:01:01;21.25;;;9.23;;
49942;SDS011;36011;53.362;58.948;2023-04-03T00:04:07;23.17;;;7.55;;
49942;SDS011;36011;53.362;58.948;2023-04-03T00:07:11;25.20;;;8.02;;
49942;SDS011;36011;53.362;58.948;2023-04-03T00:10:16;18.80;;;8.07;;
49942;SDS011;36011;53.362;58.948;2023-04-03T00:13:17;24.13;;;8.98;;
49942;SDS011;36011;53.362;58.948;2023-04-03T00:16:21;19.17;;;8.65;;
49942;SDS011;36011;53.362;58.948;2023-04-03T00:19:22;19.30;;;7.80;;
49942;SDS011;36011;53.362;58.948;2023-04-03T00:22:26;19.80;;;8.00;;
49942;SDS011;36011;53.362;58.948;2023-04-03T00:25:29;23.47;;;8.07;;
49942;SDS011;36011;53.362;58.948;2023-04-03T00:28:33;25.75;;;9.57;;
49942;SDS011;36011;53.362;58.948;2023-04-03T00:31:34;19.08;;;8.32;;
49942;SDS011;36011;53.362;58.948;2023-04-03T00:34:37;23.17;;;8.30;;
49942;SDS011;36011;53.362;58.948;2023-04-03T00:37:44;32.72;;;10.82;;
49942;SDS011;36011;53.362;58.948;2023-04-03T00:40:47;30.70;;;12.10;;
49942;SDS011;36011;53.362;58.948;2023-04-03T00:43:52;29.95;;;11.68;;
49942;SDS011;36011;53.362;58.948;2023-04-03T00:46:59;29.75;;;11.63;;
49942;SDS011;36011;53.362;58.948;2023-04-03T00:50:04;36.05;;;11.75;;
49942;SDS011;36011;53.362;58.948;2023-04-03T00:53:10;33.50;;;11.25;;
49942;SDS011;36011;53.362;58.948;2023-04-03T00:56:18;24.27;;;9.38;;
49942;SDS011;36011;53.362;58.948;2023-04-03T00:59:25;25.65;;;9.57;;
49942;SDS011;36011;53.362;58.948;2023-04-03T01:02:32;31.10;;;9.65;;
49942;SDS011;36011;53.362;58.948;2023-04-03T01:05:33;25.35;;;8.80;;
49942;SDS011;36011;53.362;58.948;2023-04-03T01:08:37;28.95;;;9.63;;
49942;SDS011;36011;53.362;58.948;2023-04-03T01:11:39;28.98;;;8.85;;
49942;SDS011;36011;53.362;58.948;2023-04-03T01:14:44;25.25;;;9.32;;
49942;SDS011;36011;53.362;58.948;2023-04-03T01:17:53;32.10;;;9.32;;
49942;SDS011;36011;53.362;58.948;2023-04-03T01:24:36;27.05;;;7.95;;
49942;SDS011;36011;53.362;58.948;2023-04-03T01:27:40;34.28;;;9.90;;
49942;SDS011;36011;53.362;58.948;2023-04-03T01:30:46;28.00;;;9.15;;
49942;SDS011;36011;53.362;58.948;2023-04-03T01:34:10;33.55;;;8.48;;
49942;SDS011;36011;53.362;58.948;2023-04-03T01:37:14;27.58;;;8.70;;
49942;SDS011;36011;53.362;58.948;2023-04-03T01:40:18;34.05;;;8.90;;
49942;SDS011;36011;53.362;58.948;2023-04-03T01:43:21;54.67;;;11.23;;
49942;SDS011;36011;53.362;58.948;2023-04-03T01:46:25;55.00;;;14.40;;
49942;SDS011;36011;53.362;58.948;2023-04-03T01:49:30;56.55;;;13.98;;
49942;SDS011;36011;53.362;58.948;2023-04-03T01:52:35;39.63;;;12.05;;
49942;SDS011;36011;53.362;58.948;2023-04-03T01:55:41;41.35;;;13.95;;
49942;SDS011;36011;53.362;58.948;2023-04-03T01:58:45;53.92;;;14.73;;
49942;SDS011;36011;53.362;58.948;2023-04-03T02:01:50;45.35;;;15.20;;
49942;SDS011;36011;53.362;58.948;2023-04-03T02:04:55;69.97;;;19.00;;
49942;SDS011;36011;53.362;58.948;2023-04-03T02:08:00;58.97;;;17.13;;
49942;SDS011;36011;53.362;58.948;2023-04-03T02:11:05;58.33;;;17.48;;
49942;SDS011;36011;53.362;58.948;2023-04-03T02:14:10;60.92;;;16.70;;
49942;SDS011;36011;53.362;58.948;2023-04-03T02:17:34;53.63;;;15.85;;
49942;SDS011;36011;53.362;58.948;2023-04-03T02:20:39;58.38;;;17.65;;
49942;SDS011;36011;53.362;58.948;2023-04-03T02:23:45;51.75;;;16.02;;
49942;SDS011;36011;53.362;58.948;2023-04-03T02:26:48;59.55;;;17.50;;
49942;SDS011;36011;53.362;58.948;2023-04-03T02:29:54;62.47;;;17.77;;
49942;SDS011;36011;53.362;58.948;2023-04-03T02:32:57;61.95;;;18.35;;
49942;SDS011;36011;53.362;58.948;2023-04-03T02:39:04;67.22;;;16.27;;
49942;SDS011;36011;53.362;58.948;2023-04-03T02:42:09;53.85;;;15.02;;
49942;SDS011;36011;53.362;58.948;2023-04-03T02:45:13;52.45;;;15.43;;
49942;SDS011;36011;53.362;58.948;2023-04-03T02:51:20;49.95;;;14.32;;
49942;SDS011;36011;53.362;58.948;2023-04-03T02:54:25;51.35;;;13.45;;
49942;SDS011;36011;53.362;58.948;2023-04-03T02:57:31;38.92;;;12.60;;
49942;SDS011;36011;53.362;58.948;2023-04-03T03:00:35;35.17;;;12.23;;
49942;SDS011;36011;53.362;58.948;2023-04-03T03:06:41;37.03;;;11.95;;
49942;SDS011;36011;53.362;58.948;2023-04-03T03:09:46;37.75;;;12.00;;
49942;SDS011;36011;53.362;58.948;2023-04-03T03:15:52;37.80;;;11.27;;
49942;SDS011;36011;53.362;58.948;2023-04-03T03:18:57;43.05;;;11.13;;
49942;SDS011;36011;53.362;58.948;2023-04-03T03:22:02;40.40;;;11.68;;
49942;SDS011;36011;53.362;58.948;2023-04-03T03:25:07;42.28;;;12.07;;
49942;SDS011;36011;53.362;58.948;2023-04-03T03:31:14;42.67;;;12.30;;
49942;SDS011;36011;53.362;58.948;2023-04-03T03:34:19;45.03;;;12.70;;
49942;SDS011;36011;53.362;58.948;2023-04-03T03:37:24;41.00;;;12.32;;
49942;SDS011;36011;53.362;58.948;2023-04-03T03:40:29;41.72;;;13.52;;
49942;SDS011;36011;53.362;58.948;2023-04-03T03:43:33;37.30;;;14.82;;
49942;SDS011;36011;53.362;58.948;2023-04-03T03:46:38;40.42;;;14.63;;
49942;SDS011;36011;53.362;58.948;2023-04-03T03:49:43;38.95;;;13.95;;
49942;SDS011;36011;53.362;58.948;2023-04-03T03:52:48;41.28;;;13.75;;
49942;SDS011;36011;53.362;58.948;2023-04-03T03:55:51;37.13;;;13.50;;
49942;SDS011;36011;53.362;58.948;2023-04-03T03:58:56;40.65;;;14.45;;
49942;SDS011;36011;53.362;58.948;2023-04-03T04:05:04;45.40;;;14.68;;
49942;SDS011;36011;53.362;58.948;2023-04-03T04:08:08;41.38;;;15.52;;
49942;SDS011;36011;53.362;58.948;2023-04-03T04:11:13;46.58;;;15.40;;
49942;SDS011;36011;53.362;58.948;2023-04-03T04:14:19;55.45;;;15.20;;
49942;SDS011;36011;53.362;58.948;2023-04-03T04:17:24;41.83;;;13.40;;
49942;SDS011;36011;53.362;58.948;2023-04-03T04:20:29;42.53;;;13.45;;
49942;SDS011;36011;53.362;58.948;2023-04-03T04:23:34;49.97;;;13.63;;
49942;SDS011;36011;53.362;58.948;2023-04-03T04:26:38;40.65;;;12.88;;
49942;SDS011;36011;53.362;58.948;2023-04-03T04:29:43;34.78;;;12.55;;
49942;SDS011;36011;53.362;58.948;2023-04-03T04:35:51;34.25;;;12.90;;
49942;SDS011;36011;53.362;58.948;2023-04-03T04:42:00;41.88;;;14.10;;
49942;SDS011;36011;53.362;58.948;2023-04-03T04:45:04;45.63;;;16.48;;
49942;SDS011;36011;53.362;58.948;2023-04-03T04:48:07;41.03;;;15.13;;
49942;SDS011;36011;53.362;58.948;2023-04-03T04:51:10;48.40;;;16.58;;
49942;SDS011;36011;53.362;58.948;2023-04-03T04:54:15;47.17;;;16.73;;
49942;SDS011;36011;53.362;58.948;2023-04-03T04:57:20;45.95;;;16.52;;
49942;SDS011;36011;53.362;58.948;2023-04-03T05:00:25;42.05;;;14.82;;
49942;SDS011;36011;53.362;58.948;2023-04-03T05:03:30;41.92;;;15.82;;
49942;SDS011;36011;53.362;58.948;2023-04-03T05:06:35;36.40;;;14.75;;
49942;SDS011;36011;53.362;58.948;2023-04-03T05:09:40;40.50;;;13.93;;
49942;SDS011;36011;53.362;58.948;2023-04-03T05:12:46;39.20;;;12.55;;
49942;SDS011;36011;53.362;58.948;2023-04-03T05:15:49;34.50;;;14.15;;
49942;SDS011;36011;53.362;58.948;2023-04-03T05:21:57;33.05;;;10.93;;
49942;SDS011;36011;53.362;58.948;2023-04-03T05:28:06;26.83;;;11.02;;
49942;SDS011;36011;53.362;58.948;2023-04-03T05:31:10;26.67;;;8.23;;
49942;SDS011;36011;53.362;58.948;2023-04-03T05:34:15;19.25;;;6.55;;
49942;SDS011;36011;53.362;58.948;2023-04-03T05:37:19;17.42;;;5.35;;
49942;SDS011;36011;53.362;58.948;2023-04-03T05:40:25;12.65;;;5.07;;
49942;SDS011;36011;53.362;58.948;2023-04-03T05:43:30;19.70;;;4.50;;
49942;SDS011;36011;53.362;58.948;2023-04-03T05:46:37;14.73;;;4.93;;
49942;SDS011;36011;53.362;58.948;2023-04-03T05:49:42;15.63;;;4.90;;
49942;SDS011;36011;53.362;58.948;2023-04-03T05:52:46;11.57;;;4.05;;
49942;SDS011;36011;53.362;58.948;2023-04-03T05:55:54;14.80;;;4.20;;
49942;SDS011;36011;53.362;58.948;2023-04-03T05:59:00;17.48;;;4.72;;
49942;SDS011;36011;53.362;58.948;2023-04-03T06:02:09;13.90;;;4.68;;
49942;SDS011;36011;53.362;58.948;2023-04-03T06:05:12;16.42;;;4.97;;
49942;SDS011;36011;53.362;58.948;2023-04-03T06:08:19;25.67;;;5.95;;
49942;SDS011;36011;53.362;58.948;2023-04-03T06:11:27;14.25;;;4.68;;
49942;SDS011;36011;53.362;58.948;2023-04-03T06:14:34;20.75;;;5.18;;
49942;SDS011;36011;53.362;58.948;2023-04-03T06:17:40;13.23;;;4.07;;
49942;SDS011;36011;53.362;58.948;2023-04-03T06:20:45;48.30;;;6.95;;
49942;SDS011;36011;53.362;58.948;2023-04-03T06:23:47;19.83;;;3.47;;
49942;SDS011;36011;53.362;58.948;2023-04-03T06:26:54;21.60;;;4.53;;
49942;SDS011;36011;53.362;58.948;2023-04-03T06:29:58;16.23;;;4.05;;
49942;SDS011;36011;53.362;58.948;2023-04-03T06:33:07;18.63;;;4.00;;
49942;SDS011;36011;53.362;58.948;2023-04-03T06:36:11;15.27;;;3.38;;
49942;SDS011;36011;53.362;58.948;2023-04-03T06:39:16;20.23;;;3.47;;
49942;SDS011;36011;53.362;58.948;2023-04-03T06:42:28;16.70;;;4.00;;
49942;SDS011;36011;53.362;58.948;2023-04-03T06:45:37;23.80;;;4.45;;
49942;SDS011;36011;53.362;58.948;2023-04-03T06:48:43;22.85;;;3.90;;
49942;SDS011;36011;53.362;58.948;2023-04-03T06:51:49;18.27;;;4.22;;
49942;SDS011;36011;53.362;58.948;2023-04-03T06:54:55;18.92;;;3.78;;
49942;SDS011;36011;53.362;58.948;2023-04-03T06:58:02;18.67;;;3.53;;
49942;SDS011;36011;53.362;58.948;2023-04-03T07:01:07;17.58;;;4.20;;
49942;SDS011;36011;53.362;58.948;2023-04-03T07:04:12;24.77;;;4.07;;
49942;SDS011;36011;53.362;58.948;2023-04-03T07:07:21;17.65;;;4.18;;
49942;SDS011;36011;53.362;58.948;2023-04-03T07:10:29;26.48;;;4.18;;
49942;SDS011;36011;53.362;58.948;2023-04-03T07:13:33;22.85;;;4.45;;
49942;SDS011;36011;53.362;58.948;2023-04-03T07:16:39;20.90;;;4.30;;
49942;SDS011;36011;53.362;58.948;2023-04-03T07:19:48;20.95;;;4.28;;
49942;SDS011;36011;53.362;58.948;2023-04-03T07:22:49;14.65;;;2.67;;
49942;SDS011;36011;53.362;58.948;2023-04-03T07:25:58;17.10;;;3.28;;
49942;SDS011;36011;53.362;58.948;2023-04-03T07:29:00;14.05;;;3.60;;
49942;SDS011;36011;53.362;58.948;2023-04-03T07:32:04;25.05;;;3.90;;
49942;SDS011;36011;53.362;58.948;2023-04-03T07:35:10;13.57;;;2.70;;
49942;SDS011;36011;53.362;58.948;2023-04-03T07:38:12;10.13;;;2.08;;
49942;SDS011;36011;53.362;58.948;2023-04-03T07:44:39;17.20;;;2.70;;
49942;SDS011;36011;53.362;58.948;2023-04-03T07:47:41;10.85;;;1.63;;
49942;SDS011;36011;53.362;58.948;2023-04-03T07:50:48;8.50;;;1.35;;
49942;SDS011;36011;53.362;58.948;2023-04-03T07:53:52;4.70;;;1.20;;
49942;SDS011;36011;53.362;58.948;2023-04-03T07:57:01;5.70;;;1.15;;
49942;SDS011;36011;53.362;58.948;2023-04-03T08:00:07;4.00;;;1.33;;
49942;SDS011;36011;53.362;58.948;2023-04-03T08:03:14;5.63;;;1.33;;
49942;SDS011;36011;53.362;58.948;2023-04-03T08:06:21;10.07;;;1.80;;
49942;SDS011;36011;53.362;58.948;2023-04-03T08:09:30;8.77;;;1.70;;
49942;SDS011;36011;53.362;58.948;2023-04-03T08:12:34;5.85;;;1.63;;
49942;SDS011;36011;53.362;58.948;2023-04-03T08:15:39;9.73;;;1.60;;
49942;SDS011;36011;53.362;58.948;2023-04-03T08:18:44;7.10;;;2.08;;
49942;SDS011;36011;53.362;58.948;2023-04-03T08:21:46;8.63;;;1.40;;
49942;SDS011;36011;53.362;58.948;2023-04-03T08:24:51;7.93;;;1.48;;
49942;SDS011;36011;53.362;58.948;2023-04-03T08:27:55;7.18;;;1.38;;
49942;SDS011;36011;53.362;58.948;2023-04-03T08:31:05;7.43;;;1.63;;
49942;SDS011;36011;53.362;58.948;2023-04-03T08:34:08;9.80;;;1.30;;
49942;SDS011;36011;53.362;58.948;2023-04-03T08:37:10;4.47;;;1.13;;
49942;SDS011;36011;53.362;58.948;2023-04-03T08:40:16;5.03;;;1.75;;
49942;SDS011;36011;53.362;58.948;2023-04-03T08:46:45;2.97;;;0.90;;
49942;SDS011;36011;53.362;58.948;2023-04-03T08:50:02;5.22;;;1.02;;
49942;SDS011;36011;53.362;58.948;2023-04-03T08:53:11;2.15;;;0.85;;
49942;SDS011;36011;53.362;58.948;2023-04-03T08:56:23;5.88;;;1.13;;
49942;SDS011;36011;53.362;58.948;2023-04-03T08:59:29;4.68;;;1.80;;
49942;SDS011;36011;53.362;58.948;2023-04-03T09:05:51;3.25;;;1.10;;
49942;SDS011;36011;53.362;58.948;2023-04-03T09:09:06;1.92;;;0.80;;
49942;SDS011;36011;53.362;58.948;2023-04-03T09:15:24;15.77;;;2.20;;
49942;SDS011;36011;53.362;58.948;2023-04-03T09:18:28;7.85;;;0.80;;
49942;SDS011;36011;53.362;58.948;2023-04-03T09:21:37;3.08;;;0.90;;
49942;SDS011;36011;53.362;58.948;2023-04-03T09:24:49;5.88;;;1.08;;
49942;SDS011;36011;53.362;58.948;2023-04-03T09:28:04;4.63;;;1.10;;
49942;SDS011;36011;53.362;58.948;2023-04-03T09:31:23;4.60;;;1.88;;
49942;SDS011;36011;53.362;58.948;2023-04-03T09:34:34;5.40;;;1.13;;
49942;SDS011;36011;53.362;58.948;2023-04-03T09:37:41;4.13;;;0.85;;
49942;SDS011;36011;53.362;58.948;2023-04-03T09:41:02;5.65;;;0.98;;
49942;SDS011;36011;53.362;58.948;2023-04-03T09:44:23;4.18;;;0.88;;
49942;SDS011;36011;53.362;58.948;2023-04-03T09:47:34;8.00;;;0.73;;
49942;SDS011;36011;53.362;58.948;2023-04-03T09:51:01;3.85;;;0.75;;
49942;SDS011;36011;53.362;58.948;2023-04-03T09:57:40;5.00;;;0.90;;
49942;SDS011;36011;53.362;58.948;2023-04-03T10:00:52;3.92;;;0.80;;
49942;SDS011;36011;53.362;58.948;2023-04-03T10:04:03;3.50;;;0.90;;
49942;SDS011;36011;53.362;58.948;2023-04-03T10:07:30;3.65;;;0.70;;
49942;SDS011;36011;53.362;58.948;2023-04-03T10:13:52;8.70;;;1.70;;
49942;SDS011;36011;53.362;58.948;2023-04-03T10:17:09;8.02;;;1.00;;
49942;SDS011;36011;53.362;58.948;2023-04-03T10:24:00;7.45;;;1.10;;
49942;SDS011;36011;53.362;58.948;2023-04-03T10:30:42;5.57;;;0.82;;
49942;SDS011;36011;53.362;58.948;2023-04-03T10:33:55;2.40;;;0.70;;
49942;SDS011;36011;53.362;58.948;2023-04-03T10:37:24;4.97;;;1.02;;
49942;SDS011;36011;53.362;58.948;2023-04-03T10:40:45;2.50;;;0.90;;
49942;SDS011;36011;53.362;58.948;2023-04-03T10:50:46;2.28;;;0.77;;
49942;SDS011;36011;53.362;58.948;2023-04-03T10:57:09;5.18;;;1.00;;
49942;SDS011;36011;53.362;58.948;2023-04-03T11:00:16;3.17;;;0.80;;
49942;SDS011;36011;53.362;58.948;2023-04-03T11:04:00;3.72;;;0.95;;
49942;SDS011;36011;53.362;58.948;2023-04-03T11:10:15;6.22;;;2.13;;
49942;SDS011;36011;53.362;58.948;2023-04-03T11:13:27;9.93;;;1.38;;
49942;SDS011;36011;53.362;58.948;2023-04-03T11:16:40;4.75;;;0.98;;
49942;SDS011;36011;53.362;58.948;2023-04-03T11:23:00;4.20;;;0.98;;
49942;SDS011;36011;53.362;58.948;2023-04-03T11:26:26;7.80;;;1.38;;
49942;SDS011;36011;53.362;58.948;2023-04-03T11:29:36;7.95;;;2.08;;
49942;SDS011;36011;53.362;58.948;2023-04-03T11:32:49;3.83;;;1.00;;
49942;SDS011;36011;53.362;58.948;2023-04-03T11:36:24;2.70;;;0.93;;
49942;SDS011;36011;53.362;58.948;2023-04-03T11:39:32;4.35;;;2.92;;
49942;SDS011;36011;53.362;58.948;2023-04-03T11:42:42;5.05;;;1.30;;
49942;SDS011;36011;53.362;58.948;2023-04-03T11:49:08;5.80;;;2.42;;
49942;SDS011;36011;53.362;58.948;2023-04-03T11:52:57;5.45;;;1.48;;
49942;SDS011;36011;53.362;58.948;2023-04-03T11:56:00;6.10;;;1.20;;
49942;SDS011;36011;53.362;58.948;2023-04-03T12:02:37;5.63;;;1.13;;
49942;SDS011;36011;53.362;58.948;2023-04-03T12:05:38;3.88;;;0.90;;
49942;SDS011;36011;53.362;58.948;2023-04-03T12:08:47;4.75;;;1.10;;
49942;SDS011;36011;53.362;58.948;2023-04-03T12:11:54;4.60;;;1.10;;
49942;SDS011;36011;53.362;58.948;2023-04-03T12:18:38;2.60;;;0.80;;
49942;SDS011;36011;53.362;58.948;2023-04-03T12:24:51;4.30;;;1.30;;
49942;SDS011;36011;53.362;58.948;2023-04-03T12:27:56;4.70;;;1.27;;
49942;SDS011;36011;53.362;58.948;2023-04-03T12:31:01;5.55;;;1.20;;
49942;SDS011;36011;53.362;58.948;2023-04-03T12:41:37;6.00;;;1.42;;
49942;SDS011;36011;53.362;58.948;2023-04-03T12:44:45;2.83;;;1.40;;
49942;SDS011;36011;53.362;58.948;2023-04-03T12:48:00;4.20;;;1.55;;
49942;SDS011;36011;53.362;58.948;2023-04-03T12:51:05;4.50;;;1.60;;
49942;SDS011;36011;53.362;58.948;2023-04-03T12:54:30;8.38;;;2.05;;
49942;SDS011;36011;53.362;58.948;2023-04-03T12:57:35;6.32;;;2.17;;
49942;SDS011;36011;53.362;58.948;2023-04-03T13:00:37;6.55;;;1.65;;
49942;SDS011;36011;53.362;58.948;2023-04-03T13:03:40;8.05;;;1.83;;
49942;SDS011;36011;53.362;58.948;2023-04-03T13:06:46;15.85;;;2.83;;
49942;SDS011;36011;53.362;58.948;2023-04-03T13:09:56;6.53;;;2.03;;
49942;SDS011;36011;53.362;58.948;2023-04-03T13:13:19;4.70;;;1.80;;
49942;SDS011;36011;53.362;58.948;2023-04-03T13:16:26;11.00;;;2.03;;
49942;SDS011;36011;53.362;58.948;2023-04-03T13:19:27;5.55;;;1.77;;
49942;SDS011;36011;53.362;58.948;2023-04-03T13:22:36;7.05;;;2.00;;
49942;SDS011;36011;53.362;58.948;2023-04-03T13:30:02;8.75;;;1.90;;
49942;SDS011;36011;53.362;58.948;2023-04-03T13:36:58;6.03;;;1.85;;
49942;SDS011;36011;53.362;58.948;2023-04-03T13:43:17;8.82;;;1.95;;
49942;SDS011;36011;53.362;58.948;2023-04-03T13:46:27;14.65;;;3.55;;
49942;SDS011;36011;53.362;58.948;2023-04-03T13:49:31;8.13;;;2.50;;
49942;SDS011;36011;53.362;58.948;2023-04-03T13:59:23;10.45;;;2.22;;
49942;SDS011;36011;53.362;58.948;2023-04-03T14:02:47;8.30;;;3.15;;
49942;SDS011;36011;53.362;58.948;2023-04-03T14:05:53;8.55;;;3.58;;
49942;SDS011;36011;53.362;58.948;2023-04-03T14:08:59;8.80;;;2.80;;
49942;SDS011;36011;53.362;58.948;2023-04-03T14:12:07;6.72;;;2.05;;
49942;SDS011;36011;53.362;58.948;2023-04-03T14:15:18;14.43;;;2.20;;
49942;SDS011;36011;53.362;58.948;2023-04-03T14:18:24;11.00;;;2.38;;
49942;SDS011;36011;53.362;58.948;2023-04-03T14:21:28;4.25;;;1.98;;
49942;SDS011;36011;53.362;58.948;2023-04-03T14:24:36;7.53;;;1.73;;
49942;SDS011;36011;53.362;58.948;2023-04-03T14:27:42;5.93;;;1.55;;
49942;SDS011;36011;53.362;58.948;2023-04-03T14:30:49;4.93;;;1.50;;
49942;SDS011;36011;53.362;58.948;2023-04-03T14:33:59;4.15;;;1.48;;
49942;SDS011;36011;53.362;58.948;2023-04-03T14:37:09;9.65;;;1.73;;
49942;SDS011;36011;53.362;58.948;2023-04-03T14:40:19;3.42;;;1.30;;
49942;SDS011;36011;53.362;58.948;2023-04-03T14:43:27;3.58;;;1.67;;
49942;SDS011;36011;53.362;58.948;2023-04-03T14:46:39;6.18;;;2.00;;
49942;SDS011;36011;53.362;58.948;2023-04-03T14:49:44;6.85;;;2.33;;
49942;SDS011;36011;53.362;58.948;2023-04-03T14:55:53;7.20;;;1.85;;
49942;SDS011;36011;53.362;58.948;2023-04-03T14:59:00;3.35;;;1.77;;
49942;SDS011;36011;53.362;58.948;2023-04-03T15:02:02;6.25;;;1.92;;
49942;SDS011;36011;53.362;58.948;2023-04-03T15:05:10;17.67;;;7.22;;
49942;SDS011;36011;53.362;58.948;2023-04-03T15:08:16;7.17;;;1.83;;
49942;SDS011;36011;53.362;58.948;2023-04-03T15:11:21;5.63;;;2.28;;
49942;SDS011;36011;53.362;58.948;2023-04-03T15:14:27;7.57;;;2.40;;
49942;SDS011;36011;53.362;58.948;2023-04-03T15:17:34;9.00;;;2.10;;
49942;SDS011;36011;53.362;58.948;2023-04-03T15:20:43;9.90;;;1.92;;
49942;SDS011;36011;53.362;58.948;2023-04-03T15:23:48;12.43;;;2.13;;
49942;SDS011;36011;53.362;58.948;2023-04-03T15:26:51;5.10;;;1.70;;
49942;SDS011;36011;53.362;58.948;2023-04-03T15:29:52;4.80;;;1.60;;
49942;SDS011;36011;53.362;58.948;2023-04-03T15:32:56;5.60;;;1.50;;
49942;SDS011;36011;53.362;58.948;2023-04-03T15:36:03;7.47;;;2.20;;
49942;SDS011;36011;53.362;58.948;2023-04-03T15:39:05;6.13;;;1.75;;
49942;SDS011;36011;53.362;58.948;2023-04-03T15:45:10;7.43;;;1.30;;
49942;SDS011;36011;53.362;58.948;2023-04-03T15:48:17;10.13;;;4.63;;
49942;SDS011;36011;53.362;58.948;2023-04-03T15:51:24;7.78;;;1.85;;
49942;SDS011;36011;53.362;58.948;2023-04-03T15:54:29;7.25;;;2.40;;
49942;SDS011;36011;53.362;58.948;2023-04-03T15:57:34;6.93;;;3.03;;
49942;SDS011;36011;53.362;58.948;2023-04-03T16:00:38;3.70;;;1.98;;
49942;SDS011;36011;53.362;58.948;2023-04-03T16:03:42;6.47;;;2.08;;
49942;SDS011;36011;53.362;58.948;2023-04-03T16:06:46;4.65;;;2.08;;
49942;SDS011;36011;53.362;58.948;2023-04-03T16:09:48;6.93;;;1.83;;
49942;SDS011;36011;53.362;58.948;2023-04-03T16:12:55;5.88;;;1.90;;
49942;SDS011;36011;53.362;58.948;2023-04-03T16:15:59;11.35;;;2.08;;
49942;SDS011;36011;53.362;58.948;2023-04-03T16:19:04;3.47;;;2.05;;
49942;SDS011;36011;53.362;58.948;2023-04-03T16:22:06;10.35;;;2.30;;
49942;SDS011;36011;53.362;58.948;2023-04-03T16:25:08;5.75;;;2.10;;
49942;SDS011;36011;53.362;58.948;2023-04-03T16:28:16;3.85;;;1.75;;
49942;SDS011;36011;53.362;58.948;2023-04-03T16:31:24;11.95;;;2.28;;
49942;SDS011;36011;53.362;58.948;2023-04-03T16:37:53;3.38;;;1.75;;
49942;SDS011;36011;53.362;58.948;2023-04-03T16:40:59;9.63;;;2.63;;
49942;SDS011;36011;53.362;58.948;2023-04-03T16:44:10;9.18;;;2.67;;
49942;SDS011;36011;53.362;58.948;2023-04-03T16:47:20;5.65;;;2.53;;
49942;SDS011;36011;53.362;58.948;2023-04-03T16:50:24;11.60;;;2.60;;
49942;SDS011;36011;53.362;58.948;2023-04-03T16:53:30;6.43;;;2.40;;
49942;SDS011;36011;53.362;58.948;2023-04-03T16:56:34;8.52;;;2.00;;
49942;SDS011;36011;53.362;58.948;2023-04-03T16:59:35;6.28;;;2.28;;
49942;SDS011;36011;53.362;58.948;2023-04-03T17:02:41;6.07;;;2.00;;
49942;SDS011;36011;53.362;58.948;2023-04-03T17:05:42;3.90;;;1.75;;
49942;SDS011;36011;53.362;58.948;2023-04-03T17:08:54;3.25;;;2.25;;
49942;SDS011;36011;53.362;58.948;2023-04-03T17:12:02;26.08;;;13.57;;
49942;SDS011;36011;53.362;58.948;2023-04-03T17:15:06;12.45;;;4.53;;
49942;SDS011;36011;53.362;58.948;2023-04-03T17:18:12;10.73;;;3.63;;
49942;SDS011;36011;53.362;58.948;2023-04-03T17:21:16;13.88;;;3.35;;
49942;SDS011;36011;53.362;58.948;2023-04-03T17:24:20;6.47;;;2.50;;
49942;SDS011;36011;53.362;58.948;2023-04-03T17:27:24;4.63;;;2.13;;
49942;SDS011;36011;53.362;58.948;2023-04-03T17:30:28;8.93;;;2.30;;
49942;SDS011;36011;53.362;58.948;2023-04-03T17:33:32;4.63;;;2.08;;
49942;SDS011;36011;53.362;58.948;2023-04-03T17:36:37;8.32;;;1.77;;
49942;SDS011;36011;53.362;58.948;2023-04-03T17:39:44;4.72;;;2.05;;
49942;SDS011;36011;53.362;58.948;2023-04-03T17:42:48;5.03;;;1.90;;
49942;SDS011;36011;53.362;58.948;2023-04-03T17:45:58;5.22;;;2.30;;
49942;SDS011;36011;53.362;58.948;2023-04-03T17:49:06;7.00;;;2.20;;
49942;SDS011;36011;53.362;58.948;2023-04-03T17:52:10;7.43;;;2.20;;
49942;SDS011;36011;53.362;58.948;2023-04-03T17:55:18;7.00;;;2.15;;
49942;SDS011;36011;53.362;58.948;2023-04-03T17:58:26;4.55;;;1.95;;
49942;SDS011;36011;53.362;58.948;2023-04-03T18:01:33;7.32;;;2.47;;
49942;SDS011;36011;53.362;58.948;2023-04-03T18:04:43;8.73;;;2.00;;
49942;SDS011;36011;53.362;58.948;2023-04-03T18:07:54;4.10;;;1.80;;
49942;SDS011;36011;53.362;58.948;2023-04-03T18:11:05;4.45;;;1.83;;
49942;SDS011;36011;53.362;58.948;2023-04-03T18:14:09;9.02;;;1.98;;
49942;SDS011;36011;53.362;58.948;2023-04-03T18:17:10;9.05;;;1.88;;
49942;SDS011;36011;53.362;58.948;2023-04-03T18:20:16;4.32;;;1.60;;
49942;SDS011;36011;53.362;58.948;2023-04-03T18:23:17;4.03;;;1.70;;
49942;SDS011;36011;53.362;58.948;2023-04-03T18:26:25;2.33;;;1.52;;
49942;SDS011;36011;53.362;58.948;2023-04-03T18:29:28;15.32;;;1.60;;
49942;SDS011;36011;53.362;58.948;2023-04-03T18:32:32;4.70;;;1.88;;
49942;SDS011;36011;53.362;58.948;2023-04-03T18:35:36;4.82;;;1.70;;
49942;SDS011;36011;53.362;58.948;2023-04-03T18:38:40;5.72;;;1.42;;
49942;SDS011;36011;53.362;58.948;2023-04-03T18:41:41;3.80;;;1.27;;
49942;SDS011;36011;53.362;58.948;2023-04-03T18:44:47;3.00;;;1.42;;
49942;SDS011;36011;53.362;58.948;2023-04-03T18:47:56;4.47;;;1.42;;
49942;SDS011;36011;53.362;58.948;2023-04-03T18:50:59;4.15;;;1.58;;
49942;SDS011;36011;53.362;58.948;2023-04-03T18:54:01;4.00;;;1.45;;
49942;SDS011;36011;53.362;58.948;2023-04-03T18:57:03;6.60;;;1.83;;
49942;SDS011;36011;53.362;58.948;2023-04-03T19:00:07;2.85;;;1.50;;
49942;SDS011;36011;53.362;58.948;2023-04-03T19:03:10;10.88;;;2.00;;
49942;SDS011;36011;53.362;58.948;2023-04-03T19:06:12;3.45;;;1.60;;
49942;SDS011;36011;53.362;58.948;2023-04-03T19:09:14;6.85;;;1.67;;
49942;SDS011;36011;53.362;58.948;2023-04-03T19:12:16;3.78;;;1.45;;
49942;SDS011;36011;53.362;58.948;2023-04-03T19:15:20;4.30;;;1.60;;
49942;SDS011;36011;53.362;58.948;2023-04-03T19:18:30;3.25;;;1.40;;
49942;SDS011;36011;53.362;58.948;2023-04-03T19:21:37;3.95;;;1.33;;
49942;SDS011;36011;53.362;58.948;2023-04-03T19:24:44;4.30;;;1.88;;
49942;SDS011;36011;53.362;58.948;2023-04-03T19:27:45;9.52;;;2.38;;
49942;SDS011;36011;53.362;58.948;2023-04-03T19:30:54;6.53;;;1.70;;
49942;SDS011;36011;53.362;58.948;2023-04-03T19:33:59;6.05;;;1.83;;
49942;SDS011;36011;53.362;58.948;2023-04-03T19:37:03;6.03;;;2.05;;
49942;SDS011;36011;53.362;58.948;2023-04-03T19:40:05;8.77;;;3.00;;
49942;SDS011;36011;53.362;58.948;2023-04-03T19:43:12;7.93;;;2.95;;
49942;SDS011;36011;53.362;58.948;2023-04-03T19:46:18;17.60;;;3.67;;
49942;SDS011;36011;53.362;58.948;2023-04-03T19:49:25;18.10;;;4.40;;
49942;SDS011;36011;53.362;58.948;2023-04-03T19:52:26;20.23;;;5.05;;
49942;SDS011;36011;53.362;58.948;2023-04-03T19:55:35;16.95;;;4.88;;
49942;SDS011;36011;53.362;58.948;2023-04-03T19:58:39;15.30;;;4.35;;
49942;SDS011;36011;53.362;58.948;2023-04-03T20:01:46;10.60;;;3.97;;
49942;SDS011;36011;53.362;58.948;2023-04-03T20:04:47;11.20;;;3.40;;
49942;SDS011;36011;53.362;58.948;2023-04-03T20:07:51;10.13;;;4.10;;
49942;SDS011;36011;53.362;58.948;2023-04-03T20:10:55;12.90;;;3.90;;
49942;SDS011;36011;53.362;58.948;2023-04-03T20:17:03;13.60;;;5.03;;
49942;SDS011;36011;53.362;58.948;2023-04-03T20:20:05;20.42;;;5.28;;
49942;SDS011;36011;53.362;58.948;2023-04-03T20:23:08;13.30;;;4.82;;
49942;SDS011;36011;53.362;58.948;2023-04-03T20:26:17;21.70;;;5.50;;